sensor_id;sensor_type;location;lat;lon;timestamp;P1;durP1;ratioP1;P2;durP2;ratioP2
18503;SDS011;9381;54.244;10.074;2023-03-01T00:02:17;29.63;;;19.55;;
18503;SDS011;9381;54.244;10.074;2023-03-01T00:07:17;32.38;;;19.10;;
18503;SDS011;9381;54.244;10.074;2023-03-01T00:12:18;31.45;;;18.75;;
18503;SDS011;9381;54.244;10.074;2023-03-01T00:17:18;27.90;;;18.43;;
18503;SDS011;9381;54.244;10.074;2023-03-01T00:22:18;28.25;;;17.00;;
18503;SDS011;9381;54.244;10.074;2023-03-01T00:27:19;30.93;;;19.97;;
18503;SDS011;9381;54.244;10.074;2023-03-01T00:32:19;35.83;;;20.53;;
18503;SDS011;9381;54.244;10.074;2023-03-01T00:37:20;32.78;;;20.17;;
18503;SDS011;9381;54.244;10.074;2023-03-01T00:42:21;33.00;;;18.83;;
18503;SDS011;9381;54.244;10.074;2023-03-01T00:47:22;36.70;;;21.60;;
18503;SDS011;9381;54.244;10.074;2023-03-01T00:52:22;46.20;;;25.00;;
18503;SDS011;9381;54.244;10.074;2023-03-01T00:57:22;31.40;;;19.98;;
18503;SDS011;9381;54.244;10.074;2023-03-01T01:02:23;46.27;;;18.70;;
18503;SDS011;9381;54.244;10.074;2023-03-01T01:07:23;27.27;;;18.00;;
18503;SDS011;9381;54.244;10.074;2023-03-01T01:12:24;104.43;;;20.85;;
18503;SDS011;9381;54.244;10.074;2023-03-01T01:17:24;122.10;;;18.30;;
18503;SDS011;9381;54.244;10.074;2023-03-01T01:22:24;75.97;;;17.20;;
18503;SDS011;9381;54.244;10.074;2023-03-01T01:27:25;47.93;;;15.50;;
18503;SDS011;9381;54.244;10.074;2023-03-01T01:32:25;70.30;;;17.57;;
18503;SDS011;9381;54.244;10.074;2023-03-01T01:37:26;67.97;;;16.63;;
18503;SDS011;9381;54.244;10.074;2023-03-01T01:42:31;97.10;;;18.80;;
18503;SDS011;9381;54.244;10.074;2023-03-01T01:47:31;34.63;;;17.07;;
18503;SDS011;9381;54.244;10.074;2023-03-01T01:52:33;44.87;;;15.93;;
18503;SDS011;9381;54.244;10.074;2023-03-01T01:57:40;69.83;;;17.40;;
18503;SDS011;9381;54.244;10.074;2023-03-01T02:02:43;111.60;;;18.77;;
18503;SDS011;9381;54.244;10.074;2023-03-01T02:07:46;28.17;;;16.30;;
18503;SDS011;9381;54.244;10.074;2023-03-01T02:12:48;28.43;;;16.87;;
18503;SDS011;9381;54.244;10.074;2023-03-01T02:17:49;177.90;;;21.83;;
18503;SDS011;9381;54.244;10.074;2023-03-01T02:22:50;234.43;;;25.17;;
18503;SDS011;9381;54.244;10.074;2023-03-01T02:33:13;46.00;;;17.50;;
18503;SDS011;9381;54.244;10.074;2023-03-01T02:38:14;108.13;;;20.23;;
18503;SDS011;9381;54.244;10.074;2023-03-01T02:43:14;76.47;;;17.37;;
18503;SDS011;9381;54.244;10.074;2023-03-01T02:48:17;151.13;;;21.37;;
18503;SDS011;9381;54.244;10.074;2023-03-01T02:53:21;61.63;;;16.13;;
18503;SDS011;9381;54.244;10.074;2023-03-01T02:58:29;95.23;;;18.40;;
18503;SDS011;9381;54.244;10.074;2023-03-01T03:03:30;53.70;;;16.97;;
18503;SDS011;9381;54.244;10.074;2023-03-01T03:08:30;26.98;;;15.82;;
18503;SDS011;9381;54.244;10.074;2023-03-01T03:13:30;100.73;;;18.47;;
18503;SDS011;9381;54.244;10.074;2023-03-01T03:18:32;61.17;;;17.23;;
18503;SDS011;9381;54.244;10.074;2023-03-01T03:23:32;23.35;;;14.05;;
18503;SDS011;9381;54.244;10.074;2023-03-01T03:28:33;48.87;;;16.20;;
18503;SDS011;9381;54.244;10.074;2023-03-01T03:33:34;17.97;;;12.97;;
18503;SDS011;9381;54.244;10.074;2023-03-01T03:38:35;51.50;;;16.50;;
18503;SDS011;9381;54.244;10.074;2023-03-01T03:43:36;20.45;;;13.93;;
18503;SDS011;9381;54.244;10.074;2023-03-01T03:48:41;57.20;;;15.83;;
18503;SDS011;9381;54.244;10.074;2023-03-01T03:53:44;55.60;;;17.07;;
18503;SDS011;9381;54.244;10.074;2023-03-01T03:58:45;110.10;;;18.70;;
18503;SDS011;9381;54.244;10.074;2023-03-01T04:03:45;33.25;;;14.18;;
18503;SDS011;9381;54.244;10.074;2023-03-01T04:08:46;140.47;;;17.83;;
18503;SDS011;9381;54.244;10.074;2023-03-01T04:13:52;66.90;;;14.93;;
18503;SDS011;9381;54.244;10.074;2023-03-01T04:18:53;41.23;;;14.40;;
18503;SDS011;9381;54.244;10.074;2023-03-01T04:23:53;42.53;;;13.30;;
18503;SDS011;9381;54.244;10.074;2023-03-01T04:28:53;132.93;;;17.63;;
18503;SDS011;9381;54.244;10.074;2023-03-01T04:33:55;30.45;;;13.40;;
18503;SDS011;9381;54.244;10.074;2023-03-01T04:38:56;39.17;;;13.30;;
18503;SDS011;9381;54.244;10.074;2023-03-01T04:43:56;23.10;;;11.20;;
18503;SDS011;9381;54.244;10.074;2023-03-01T04:48:56;60.80;;;15.07;;
18503;SDS011;9381;54.244;10.074;2023-03-01T04:53:57;22.93;;;12.80;;
18503;SDS011;9381;54.244;10.074;2023-03-01T04:58:57;44.60;;;14.85;;
18503;SDS011;9381;54.244;10.074;2023-03-01T05:03:57;34.17;;;12.75;;
18503;SDS011;9381;54.244;10.074;2023-03-01T05:09:02;28.43;;;13.13;;
18503;SDS011;9381;54.244;10.074;2023-03-01T05:14:03;151.50;;;17.13;;
18503;SDS011;9381;54.244;10.074;2023-03-01T05:19:05;49.07;;;13.30;;
18503;SDS011;9381;54.244;10.074;2023-03-01T05:24:11;162.33;;;18.73;;
18503;SDS011;9381;54.244;10.074;2023-03-01T05:29:11;151.70;;;19.00;;
18503;SDS011;9381;54.244;10.074;2023-03-01T05:34:12;27.47;;;11.40;;
18503;SDS011;9381;54.244;10.074;2023-03-01T05:39:12;36.87;;;12.43;;
18503;SDS011;9381;54.244;10.074;2023-03-01T05:44:13;23.38;;;10.93;;
18503;SDS011;9381;54.244;10.074;2023-03-01T05:49:13;144.70;;;17.70;;
18503;SDS011;9381;54.244;10.074;2023-03-01T05:54:14;81.07;;;13.03;;
18503;SDS011;9381;54.244;10.074;2023-03-01T05:59:14;117.00;;;15.23;;
18503;SDS011;9381;54.244;10.074;2023-03-01T06:04:16;28.47;;;10.47;;
18503;SDS011;9381;54.244;10.074;2023-03-01T06:09:16;62.30;;;13.37;;
18503;SDS011;9381;54.244;10.074;2023-03-01T06:14:16;21.05;;;10.48;;
18503;SDS011;9381;54.244;10.074;2023-03-01T06:19:17;20.25;;;11.52;;
18503;SDS011;9381;54.244;10.074;2023-03-01T06:24:17;23.97;;;12.33;;
18503;SDS011;9381;54.244;10.074;2023-03-01T06:29:18;35.60;;;11.50;;
18503;SDS011;9381;54.244;10.074;2023-03-01T06:34:18;17.07;;;9.47;;
18503;SDS011;9381;54.244;10.074;2023-03-01T06:39:19;29.20;;;9.60;;
18503;SDS011;9381;54.244;10.074;2023-03-01T06:44:19;19.65;;;10.07;;
18503;SDS011;9381;54.244;10.074;2023-03-01T06:49:20;42.45;;;11.68;;
18503;SDS011;9381;54.244;10.074;2023-03-01T06:54:21;121.17;;;14.33;;
18503;SDS011;9381;54.244;10.074;2023-03-01T06:59:24;48.53;;;11.97;;
18503;SDS011;9381;54.244;10.074;2023-03-01T07:04:24;180.03;;;16.33;;
18503;SDS011;9381;54.244;10.074;2023-03-01T07:09:25;71.47;;;12.37;;
18503;SDS011;9381;54.244;10.074;2023-03-01T07:14:25;77.70;;;11.13;;
18503;SDS011;9381;54.244;10.074;2023-03-01T07:19:25;41.87;;;9.80;;
18503;SDS011;9381;54.244;10.074;2023-03-01T07:24:26;16.17;;;8.73;;
18503;SDS011;9381;54.244;10.074;2023-03-01T07:29:26;47.27;;;9.53;;
18503;SDS011;9381;54.244;10.074;2023-03-01T07:34:28;127.07;;;14.20;;
18503;SDS011;9381;54.244;10.074;2023-03-01T07:39:29;52.20;;;10.97;;
18503;SDS011;9381;54.244;10.074;2023-03-01T07:44:29;46.40;;;10.80;;
18503;SDS011;9381;54.244;10.074;2023-03-01T07:49:29;28.40;;;9.77;;
18503;SDS011;9381;54.244;10.074;2023-03-01T07:54:30;27.30;;;9.20;;
18503;SDS011;9381;54.244;10.074;2023-03-01T07:59:30;48.20;;;10.53;;
18503;SDS011;9381;54.244;10.074;2023-03-01T08:04:31;23.40;;;9.60;;
18503;SDS011;9381;54.244;10.074;2023-03-01T08:09:35;26.50;;;10.53;;
18503;SDS011;9381;54.244;10.074;2023-03-01T08:14:37;53.73;;;11.87;;
18503;SDS011;9381;54.244;10.074;2023-03-01T08:19:37;29.57;;;9.37;;
18503;SDS011;9381;54.244;10.074;2023-03-01T08:24:38;59.37;;;10.10;;
18503;SDS011;9381;54.244;10.074;2023-03-01T08:29:38;40.73;;;9.77;;
18503;SDS011;9381;54.244;10.074;2023-03-01T08:34:38;38.15;;;8.95;;
18503;SDS011;9381;54.244;10.074;2023-03-01T08:39:39;20.97;;;7.80;;
18503;SDS011;9381;54.244;10.074;2023-03-01T08:44:39;119.03;;;12.70;;
18503;SDS011;9381;54.244;10.074;2023-03-01T08:49:39;22.03;;;9.20;;
18503;SDS011;9381;54.244;10.074;2023-03-01T08:54:39;13.88;;;9.00;;
18503;SDS011;9381;54.244;10.074;2023-03-01T08:59:40;20.73;;;7.38;;
18503;SDS011;9381;54.244;10.074;2023-03-01T09:04:40;11.63;;;8.00;;
18503;SDS011;9381;54.244;10.074;2023-03-01T09:09:40;10.10;;;7.70;;
18503;SDS011;9381;54.244;10.074;2023-03-01T09:14:41;43.67;;;23.70;;
18503;SDS011;9381;54.244;10.074;2023-03-01T09:19:42;34.87;;;9.17;;
18503;SDS011;9381;54.244;10.074;2023-03-01T09:24:42;13.80;;;9.05;;
18503;SDS011;9381;54.244;10.074;2023-03-01T09:29:42;12.80;;;8.63;;
18503;SDS011;9381;54.244;10.074;2023-03-01T09:34:43;14.30;;;8.87;;
18503;SDS011;9381;54.244;10.074;2023-03-01T09:40:05;12.30;;;8.87;;
18503;SDS011;9381;54.244;10.074;2023-03-01T09:45:10;16.80;;;9.80;;
18503;SDS011;9381;54.244;10.074;2023-03-01T09:50:16;13.03;;;8.83;;
18503;SDS011;9381;54.244;10.074;2023-03-01T09:55:20;15.33;;;10.27;;
18503;SDS011;9381;54.244;10.074;2023-03-01T10:00:30;15.37;;;10.17;;
18503;SDS011;9381;54.244;10.074;2023-03-01T10:05:59;18.17;;;11.77;;
18503;SDS011;9381;54.244;10.074;2023-03-01T10:11:22;15.57;;;10.50;;
18503;SDS011;9381;54.244;10.074;2023-03-01T10:21:45;16.93;;;11.47;;
18503;SDS011;9381;54.244;10.074;2023-03-01T10:26:56;20.70;;;12.57;;
18503;SDS011;9381;54.244;10.074;2023-03-01T10:32:01;18.03;;;11.97;;
18503;SDS011;9381;54.244;10.074;2023-03-01T10:37:14;22.80;;;13.70;;
18503;SDS011;9381;54.244;10.074;2023-03-01T10:42:19;21.03;;;12.27;;
18503;SDS011;9381;54.244;10.074;2023-03-01T10:47:26;17.87;;;11.90;;
18503;SDS011;9381;54.244;10.074;2023-03-01T10:52:37;17.77;;;11.70;;
18503;SDS011;9381;54.244;10.074;2023-03-01T10:57:40;18.90;;;12.30;;
18503;SDS011;9381;54.244;10.074;2023-03-01T11:02:41;23.03;;;12.40;;
18503;SDS011;9381;54.244;10.074;2023-03-01T11:07:48;16.38;;;11.05;;
18503;SDS011;9381;54.244;10.074;2023-03-01T11:12:51;13.13;;;8.70;;
18503;SDS011;9381;54.244;10.074;2023-03-01T11:17:53;12.53;;;8.97;;
18503;SDS011;9381;54.244;10.074;2023-03-01T11:22:59;12.43;;;8.77;;
18503;SDS011;9381;54.244;10.074;2023-03-01T11:28:04;9.47;;;7.30;;
18503;SDS011;9381;54.244;10.074;2023-03-01T11:43:16;9.80;;;7.30;;
18503;SDS011;9381;54.244;10.074;2023-03-01T11:59:01;8.93;;;6.97;;
18503;SDS011;9381;54.244;10.074;2023-03-01T12:09:38;11.60;;;8.53;;
18503;SDS011;9381;54.244;10.074;2023-03-01T12:20:33;9.43;;;7.73;;
18503;SDS011;9381;54.244;10.074;2023-03-01T12:31:22;12.30;;;8.30;;
18503;SDS011;9381;54.244;10.074;2023-03-01T12:48:05;13.07;;;9.70;;
18503;SDS011;9381;54.244;10.074;2023-03-01T12:53:28;12.33;;;9.03;;
18503;SDS011;9381;54.244;10.074;2023-03-01T12:58:36;18.03;;;12.27;;
18503;SDS011;9381;54.244;10.074;2023-03-01T13:04:06;18.27;;;12.10;;
18503;SDS011;9381;54.244;10.074;2023-03-01T13:09:20;13.50;;;9.97;;
18503;SDS011;9381;54.244;10.074;2023-03-01T13:19:30;15.07;;;10.60;;
18503;SDS011;9381;54.244;10.074;2023-03-01T13:24:37;12.70;;;9.07;;
18503;SDS011;9381;54.244;10.074;2023-03-01T13:29:44;14.43;;;9.63;;
18503;SDS011;9381;54.244;10.074;2023-03-01T13:34:48;12.90;;;9.20;;
18503;SDS011;9381;54.244;10.074;2023-03-01T13:39:51;15.47;;;10.33;;
18503;SDS011;9381;54.244;10.074;2023-03-01T13:44:52;13.47;;;9.70;;
18503;SDS011;9381;54.244;10.074;2023-03-01T13:50:00;14.07;;;10.10;;
18503;SDS011;9381;54.244;10.074;2023-03-01T13:55:45;18.70;;;10.40;;
18503;SDS011;9381;54.244;10.074;2023-03-01T14:21:34;14.23;;;10.60;;
18503;SDS011;9381;54.244;10.074;2023-03-01T14:26:36;17.80;;;11.73;;
18503;SDS011;9381;54.244;10.074;2023-03-01T14:31:37;15.07;;;11.07;;
18503;SDS011;9381;54.244;10.074;2023-03-01T14:36:39;19.10;;;13.17;;
18503;SDS011;9381;54.244;10.074;2023-03-01T14:41:39;21.73;;;13.48;;
18503;SDS011;9381;54.244;10.074;2023-03-01T14:46:40;26.87;;;17.37;;
18503;SDS011;9381;54.244;10.074;2023-03-01T14:51:46;19.53;;;12.27;;
18503;SDS011;9381;54.244;10.074;2023-03-01T14:56:52;18.60;;;13.43;;
18503;SDS011;9381;54.244;10.074;2023-03-01T15:01:57;19.30;;;12.80;;
18503;SDS011;9381;54.244;10.074;2023-03-01T15:06:59;20.23;;;13.80;;
18503;SDS011;9381;54.244;10.074;2023-03-01T15:17:37;23.60;;;15.80;;
18503;SDS011;9381;54.244;10.074;2023-03-01T15:22:40;22.33;;;15.03;;
18503;SDS011;9381;54.244;10.074;2023-03-01T15:27:49;28.73;;;15.43;;
18503;SDS011;9381;54.244;10.074;2023-03-01T15:33:15;28.33;;;19.40;;
18503;SDS011;9381;54.244;10.074;2023-03-01T15:43:38;33.50;;;16.17;;
18503;SDS011;9381;54.244;10.074;2023-03-01T15:48:38;31.20;;;16.53;;
18503;SDS011;9381;54.244;10.074;2023-03-01T15:53:39;44.00;;;17.10;;
18503;SDS011;9381;54.244;10.074;2023-03-01T15:58:39;31.17;;;16.13;;
18503;SDS011;9381;54.244;10.074;2023-03-01T16:03:40;41.03;;;16.83;;
18503;SDS011;9381;54.244;10.074;2023-03-01T16:08:40;28.97;;;18.23;;
18503;SDS011;9381;54.244;10.074;2023-03-01T16:13:41;31.27;;;17.87;;
18503;SDS011;9381;54.244;10.074;2023-03-01T16:18:45;34.13;;;18.33;;
18503;SDS011;9381;54.244;10.074;2023-03-01T16:23:46;30.13;;;16.30;;
18503;SDS011;9381;54.244;10.074;2023-03-01T16:28:47;34.33;;;17.10;;
18503;SDS011;9381;54.244;10.074;2023-03-01T16:33:48;29.53;;;17.77;;
18503;SDS011;9381;54.244;10.074;2023-03-01T16:38:50;30.63;;;17.90;;
18503;SDS011;9381;54.244;10.074;2023-03-01T16:43:51;46.10;;;17.63;;
18503;SDS011;9381;54.244;10.074;2023-03-01T16:48:52;39.97;;;17.37;;
18503;SDS011;9381;54.244;10.074;2023-03-01T16:53:53;51.83;;;17.50;;
18503;SDS011;9381;54.244;10.074;2023-03-01T16:58:53;31.13;;;16.97;;
18503;SDS011;9381;54.244;10.074;2023-03-01T17:03:53;40.07;;;19.53;;
18503;SDS011;9381;54.244;10.074;2023-03-01T17:08:54;34.20;;;18.00;;
18503;SDS011;9381;54.244;10.074;2023-03-01T17:13:54;48.47;;;18.00;;
18503;SDS011;9381;54.244;10.074;2023-03-01T17:18:55;35.03;;;17.67;;
18503;SDS011;9381;54.244;10.074;2023-03-01T17:23:56;61.97;;;22.03;;
18503;SDS011;9381;54.244;10.074;2023-03-01T17:28:57;34.87;;;21.37;;
18503;SDS011;9381;54.244;10.074;2023-03-01T17:33:58;35.43;;;18.50;;
18503;SDS011;9381;54.244;10.074;2023-03-01T17:38:58;37.00;;;21.03;;
18503;SDS011;9381;54.244;10.074;2023-03-01T17:43:59;35.28;;;20.05;;
18503;SDS011;9381;54.244;10.074;2023-03-01T17:48:59;53.83;;;26.47;;
18503;SDS011;9381;54.244;10.074;2023-03-01T17:53:59;43.30;;;20.07;;
18503;SDS011;9381;54.244;10.074;2023-03-01T17:59:00;37.17;;;21.87;;
18503;SDS011;9381;54.244;10.074;2023-03-01T18:04:00;41.17;;;21.40;;
18503;SDS011;9381;54.244;10.074;2023-03-01T18:09:01;48.50;;;24.00;;
18503;SDS011;9381;54.244;10.074;2023-03-01T18:14:02;50.93;;;26.20;;
18503;SDS011;9381;54.244;10.074;2023-03-01T18:19:02;40.00;;;22.50;;
18503;SDS011;9381;54.244;10.074;2023-03-01T18:24:03;41.07;;;23.30;;
18503;SDS011;9381;54.244;10.074;2023-03-01T18:29:03;55.37;;;26.57;;
18503;SDS011;9381;54.244;10.074;2023-03-01T18:34:04;51.67;;;25.43;;
18503;SDS011;9381;54.244;10.074;2023-03-01T18:39:05;77.80;;;25.30;;
18503;SDS011;9381;54.244;10.074;2023-03-01T18:44:06;62.77;;;23.47;;
18503;SDS011;9381;54.244;10.074;2023-03-01T18:49:07;52.90;;;26.97;;
18503;SDS011;9381;54.244;10.074;2023-03-01T18:54:09;93.10;;;42.23;;
18503;SDS011;9381;54.244;10.074;2023-03-01T18:59:10;73.60;;;24.77;;
18503;SDS011;9381;54.244;10.074;2023-03-01T19:04:11;75.60;;;26.80;;
18503;SDS011;9381;54.244;10.074;2023-03-01T19:09:11;51.93;;;27.07;;
18503;SDS011;9381;54.244;10.074;2023-03-01T19:14:12;53.20;;;27.03;;
18503;SDS011;9381;54.244;10.074;2023-03-01T19:19:12;45.93;;;23.43;;
18503;SDS011;9381;54.244;10.074;2023-03-01T19:24:12;41.50;;;25.13;;
18503;SDS011;9381;54.244;10.074;2023-03-01T19:29:13;54.37;;;26.37;;
18503;SDS011;9381;54.244;10.074;2023-03-01T19:34:13;43.23;;;25.33;;
18503;SDS011;9381;54.244;10.074;2023-03-01T19:39:14;48.27;;;24.20;;
18503;SDS011;9381;54.244;10.074;2023-03-01T19:44:15;47.93;;;24.80;;
18503;SDS011;9381;54.244;10.074;2023-03-01T19:49:15;51.00;;;26.40;;
18503;SDS011;9381;54.244;10.074;2023-03-01T19:54:15;47.93;;;25.20;;
18503;SDS011;9381;54.244;10.074;2023-03-01T19:59:19;51.10;;;25.70;;
18503;SDS011;9381;54.244;10.074;2023-03-01T20:04:23;46.17;;;25.33;;
18503;SDS011;9381;54.244;10.074;2023-03-01T20:09:23;47.17;;;25.77;;
18503;SDS011;9381;54.244;10.074;2023-03-01T20:14:24;48.90;;;25.27;;
18503;SDS011;9381;54.244;10.074;2023-03-01T20:19:24;49.37;;;24.47;;
18503;SDS011;9381;54.244;10.074;2023-03-01T20:24:24;46.10;;;24.83;;
18503;SDS011;9381;54.244;10.074;2023-03-01T20:29:25;49.47;;;27.13;;
18503;SDS011;9381;54.244;10.074;2023-03-01T20:34:25;55.47;;;27.43;;
18503;SDS011;9381;54.244;10.074;2023-03-01T20:39:25;55.75;;;28.20;;
18503;SDS011;9381;54.244;10.074;2023-03-01T20:44:26;58.77;;;30.77;;
18503;SDS011;9381;54.244;10.074;2023-03-01T20:49:26;53.40;;;27.23;;
18503;SDS011;9381;54.244;10.074;2023-03-01T20:54:27;53.30;;;27.73;;
18503;SDS011;9381;54.244;10.074;2023-03-01T20:59:27;49.40;;;26.55;;
18503;SDS011;9381;54.244;10.074;2023-03-01T21:04:28;62.00;;;32.10;;
18503;SDS011;9381;54.244;10.074;2023-03-01T21:09:28;50.65;;;25.02;;
18503;SDS011;9381;54.244;10.074;2023-03-01T21:14:28;56.60;;;26.83;;
18503;SDS011;9381;54.244;10.074;2023-03-01T21:19:29;69.17;;;26.73;;
18503;SDS011;9381;54.244;10.074;2023-03-01T21:24:30;64.70;;;26.43;;
18503;SDS011;9381;54.244;10.074;2023-03-01T21:29:35;49.87;;;26.17;;
18503;SDS011;9381;54.244;10.074;2023-03-01T21:34:36;54.17;;;26.03;;
18503;SDS011;9381;54.244;10.074;2023-03-01T21:39:37;62.77;;;22.33;;
18503;SDS011;9381;54.244;10.074;2023-03-01T21:44:38;61.27;;;24.10;;
18503;SDS011;9381;54.244;10.074;2023-03-01T21:49:38;50.95;;;24.73;;
18503;SDS011;9381;54.244;10.074;2023-03-01T21:54:38;71.57;;;23.20;;
18503;SDS011;9381;54.244;10.074;2023-03-01T21:59:39;46.77;;;21.97;;
18503;SDS011;9381;54.244;10.074;2023-03-01T22:04:40;43.77;;;22.43;;
18503;SDS011;9381;54.244;10.074;2023-03-01T22:09:40;62.00;;;22.83;;
18503;SDS011;9381;54.244;10.074;2023-03-01T22:14:40;46.67;;;23.73;;
18503;SDS011;9381;54.244;10.074;2023-03-01T22:19:42;114.00;;;26.33;;
18503;SDS011;9381;54.244;10.074;2023-03-01T22:24:43;64.93;;;23.80;;
18503;SDS011;9381;54.244;10.074;2023-03-01T22:29:43;61.93;;;23.53;;
18503;SDS011;9381;54.244;10.074;2023-03-01T22:34:43;49.50;;;22.13;;
18503;SDS011;9381;54.244;10.074;2023-03-01T22:39:45;108.43;;;27.03;;
18503;SDS011;9381;54.244;10.074;2023-03-01T22:44:45;49.38;;;22.67;;
18503;SDS011;9381;54.244;10.074;2023-03-01T22:49:46;86.43;;;25.30;;
18503;SDS011;9381;54.244;10.074;2023-03-01T22:54:46;60.23;;;23.57;;
18503;SDS011;9381;54.244;10.074;2023-03-01T22:59:46;75.83;;;25.77;;
18503;SDS011;9381;54.244;10.074;2023-03-01T23:04:47;109.83;;;25.50;;
18503;SDS011;9381;54.244;10.074;2023-03-01T23:09:47;132.40;;;26.73;;
18503;SDS011;9381;54.244;10.074;2023-03-01T23:14:48;97.33;;;25.03;;
18503;SDS011;9381;54.244;10.074;2023-03-01T23:19:48;72.30;;;25.57;;
18503;SDS011;9381;54.244;10.074;2023-03-01T23:24:50;61.03;;;25.07;;
18503;SDS011;9381;54.244;10.074;2023-03-01T23:29:50;52.37;;;24.90;;
18503;SDS011;9381;54.244;10.074;2023-03-01T23:34:51;51.60;;;26.43;;
18503;SDS011;9381;54.244;10.074;2023-03-01T23:39:51;58.63;;;26.23;;
18503;SDS011;9381;54.244;10.074;2023-03-01T23:44:52;87.90;;;27.50;;
18503;SDS011;9381;54.244;10.074;2023-03-01T23:49:52;63.97;;;26.20;;
18503;SDS011;9381;54.244;10.074;2023-03-01T23:54:52;75.45;;;26.05;;
18503;SDS011;9381;54.244;10.074;2023-03-01T23:59:53;79.77;;;27.33;;
